sensor_id;sensor_type;location;lat;lon;timestamp;temperature;humidity
10543;DHT22;5320;50.046;10.314;2022-11-03T00:01:50;6.40;99.90
10543;DHT22;5320;50.046;10.314;2022-11-03T00:04:17;6.50;99.90
10543;DHT22;5320;50.046;10.314;2022-11-03T00:06:46;6.50;99.90
10543;DHT22;5320;50.046;10.314;2022-11-03T00:09:13;6.50;99.90
10543;DHT22;5320;50.046;10.314;2022-11-03T00:11:40;6.50;99.90
10543;DHT22;5320;50.046;10.314;2022-11-03T00:14:07;6.50;99.90
10543;DHT22;5320;50.046;10.314;2022-11-03T00:16:36;6.50;99.90
10543;DHT22;5320;50.046;10.314;2022-11-03T00:19:02;6.50;99.90
10543;DHT22;5320;50.046;10.314;2022-11-03T00:21:28;6.60;99.90
10543;DHT22;5320;50.046;10.314;2022-11-03T00:23:54;6.60;99.90
10543;DHT22;5320;50.046;10.314;2022-11-03T00:26:22;6.50;99.90
10543;DHT22;5320;50.046;10.314;2022-11-03T00:28:50;6.50;99.90
10543;DHT22;5320;50.046;10.314;2022-11-03T00:31:19;6.50;99.90
10543;DHT22;5320;50.046;10.314;2022-11-03T00:33:45;6.50;99.90
10543;DHT22;5320;50.046;10.314;2022-11-03T00:36:14;6.50;99.90
10543;DHT22;5320;50.046;10.314;2022-11-03T00:38:40;6.30;99.90
10543;DHT22;5320;50.046;10.314;2022-11-03T00:41:06;6.30;99.90
10543;DHT22;5320;50.046;10.314;2022-11-03T00:43:33;6.40;99.90
10543;DHT22;5320;50.046;10.314;2022-11-03T00:46:00;6.40;99.90
10543;DHT22;5320;50.046;10.314;2022-11-03T00:48:26;6.30;99.90
10543;DHT22;5320;50.046;10.314;2022-11-03T00:53:24;6.30;99.90
10543;DHT22;5320;50.046;10.314;2022-11-03T00:55:50;6.30;99.90
10543;DHT22;5320;50.046;10.314;2022-11-03T00:58:15;6.20;99.90
10543;DHT22;5320;50.046;10.314;2022-11-03T01:00:41;6.20;99.90
10543;DHT22;5320;50.046;10.314;2022-11-03T01:03:07;6.10;99.90
10543;DHT22;5320;50.046;10.314;2022-11-03T01:05:32;6.10;99.90
10543;DHT22;5320;50.046;10.314;2022-11-03T01:08:16;6.10;99.90
10543;DHT22;5320;50.046;10.314;2022-11-03T01:10:42;6.10;99.90
10543;DHT22;5320;50.046;10.314;2022-11-03T01:13:28;6.10;99.90
10543;DHT22;5320;50.046;10.314;2022-11-03T01:15:57;6.00;99.90
10543;DHT22;5320;50.046;10.314;2022-11-03T01:18:25;6.00;99.90
10543;DHT22;5320;50.046;10.314;2022-11-03T01:20:56;6.00;99.90
10543;DHT22;5320;50.046;10.314;2022-11-03T01:23:25;5.90;99.90
10543;DHT22;5320;50.046;10.314;2022-11-03T01:25:50;5.90;99.90
10543;DHT22;5320;50.046;10.314;2022-11-03T01:28:16;5.90;99.90
10543;DHT22;5320;50.046;10.314;2022-11-03T01:30:42;5.90;99.90
10543;DHT22;5320;50.046;10.314;2022-11-03T01:33:07;5.90;99.90
10543;DHT22;5320;50.046;10.314;2022-11-03T01:35:33;5.90;99.90
10543;DHT22;5320;50.046;10.314;2022-11-03T01:37:58;5.80;99.90
10543;DHT22;5320;50.046;10.314;2022-11-03T01:40:24;5.80;99.90
10543;DHT22;5320;50.046;10.314;2022-11-03T01:42:49;5.80;99.90
10543;DHT22;5320;50.046;10.314;2022-11-03T01:45:15;5.70;99.90
10543;DHT22;5320;50.046;10.314;2022-11-03T01:47:42;5.70;99.90
10543;DHT22;5320;50.046;10.314;2022-11-03T01:50:18;5.80;99.90
10543;DHT22;5320;50.046;10.314;2022-11-03T01:52:56;5.70;99.90
10543;DHT22;5320;50.046;10.314;2022-11-03T01:55:27;5.70;99.90
10543;DHT22;5320;50.046;10.314;2022-11-03T01:58:07;5.70;99.90
10543;DHT22;5320;50.046;10.314;2022-11-03T02:00:35;5.80;99.90
10543;DHT22;5320;50.046;10.314;2022-11-03T02:03:01;5.70;99.90
10543;DHT22;5320;50.046;10.314;2022-11-03T02:05:28;5.80;99.90
10543;DHT22;5320;50.046;10.314;2022-11-03T02:08:14;5.80;99.90
10543;DHT22;5320;50.046;10.314;2022-11-03T02:10:42;5.80;99.90
10543;DHT22;5320;50.046;10.314;2022-11-03T02:13:22;5.80;99.90
10543;DHT22;5320;50.046;10.314;2022-11-03T02:15:50;5.80;99.90
10543;DHT22;5320;50.046;10.314;2022-11-03T02:18:19;5.80;99.90
10543;DHT22;5320;50.046;10.314;2022-11-03T02:21:01;5.80;99.90
10543;DHT22;5320;50.046;10.314;2022-11-03T02:26:29;5.80;99.90
10543;DHT22;5320;50.046;10.314;2022-11-03T02:28:55;5.80;99.90
10543;DHT22;5320;50.046;10.314;2022-11-03T02:31:42;5.80;99.90
10543;DHT22;5320;50.046;10.314;2022-11-03T02:34:18;5.80;99.90
10543;DHT22;5320;50.046;10.314;2022-11-03T02:36:50;5.80;99.90
10543;DHT22;5320;50.046;10.314;2022-11-03T02:39:18;5.80;99.90
10543;DHT22;5320;50.046;10.314;2022-11-03T02:41:46;5.70;99.90
10543;DHT22;5320;50.046;10.314;2022-11-03T02:44:15;5.80;99.90
10543;DHT22;5320;50.046;10.314;2022-11-03T02:46:47;5.80;99.90
10543;DHT22;5320;50.046;10.314;2022-11-03T02:49:13;5.80;99.90
10543;DHT22;5320;50.046;10.314;2022-11-03T02:51:39;5.80;99.90
10543;DHT22;5320;50.046;10.314;2022-11-03T02:54:21;5.80;99.90
10543;DHT22;5320;50.046;10.314;2022-11-03T02:56:57;5.80;99.90
10543;DHT22;5320;50.046;10.314;2022-11-03T02:59:29;5.80;99.90
10543;DHT22;5320;50.046;10.314;2022-11-03T03:02:14;5.80;99.90
10543;DHT22;5320;50.046;10.314;2022-11-03T03:04:50;5.80;99.90
10543;DHT22;5320;50.046;10.314;2022-11-03T03:07:33;5.80;99.90
10543;DHT22;5320;50.046;10.314;2022-11-03T03:10:11;5.80;99.90
10543;DHT22;5320;50.046;10.314;2022-11-03T03:12:41;5.80;99.90
10543;DHT22;5320;50.046;10.314;2022-11-03T03:15:08;5.80;99.90
10543;DHT22;5320;50.046;10.314;2022-11-03T03:22:36;5.80;99.90
10543;DHT22;5320;50.046;10.314;2022-11-03T03:27:40;5.90;99.90
10543;DHT22;5320;50.046;10.314;2022-11-03T03:30:08;5.90;99.90
10543;DHT22;5320;50.046;10.314;2022-11-03T03:32:37;5.90;99.90
10543;DHT22;5320;50.046;10.314;2022-11-03T03:35:05;5.90;99.90
10543;DHT22;5320;50.046;10.314;2022-11-03T03:37:34;5.90;99.90
10543;DHT22;5320;50.046;10.314;2022-11-03T03:40:03;5.90;99.90
10543;DHT22;5320;50.046;10.314;2022-11-03T03:42:31;5.90;99.90
10543;DHT22;5320;50.046;10.314;2022-11-03T03:44:58;5.90;99.90
10543;DHT22;5320;50.046;10.314;2022-11-03T03:47:28;5.90;99.90
10543;DHT22;5320;50.046;10.314;2022-11-03T03:49:55;5.90;99.90
10543;DHT22;5320;50.046;10.314;2022-11-03T03:52:21;5.90;99.90
10543;DHT22;5320;50.046;10.314;2022-11-03T03:54:47;5.80;99.90
10543;DHT22;5320;50.046;10.314;2022-11-03T03:57:14;5.90;99.90
10543;DHT22;5320;50.046;10.314;2022-11-03T03:59:42;5.80;99.90
10543;DHT22;5320;50.046;10.314;2022-11-03T04:02:08;5.90;99.90
10543;DHT22;5320;50.046;10.314;2022-11-03T04:04:33;5.90;99.90
10543;DHT22;5320;50.046;10.314;2022-11-03T04:06:59;5.90;99.90
10543;DHT22;5320;50.046;10.314;2022-11-03T04:09:43;5.80;99.90
10543;DHT22;5320;50.046;10.314;2022-11-03T04:12:09;5.80;99.90
10543;DHT22;5320;50.046;10.314;2022-11-03T04:14:53;5.80;99.90
10543;DHT22;5320;50.046;10.314;2022-11-03T04:17:41;5.80;99.90
10543;DHT22;5320;50.046;10.314;2022-11-03T04:20:26;5.80;99.90
10543;DHT22;5320;50.046;10.314;2022-11-03T04:23:10;5.80;99.90
10543;DHT22;5320;50.046;10.314;2022-11-03T04:25:36;5.80;99.90
10543;DHT22;5320;50.046;10.314;2022-11-03T04:28:11;5.80;99.90
10543;DHT22;5320;50.046;10.314;2022-11-03T04:30:37;5.80;99.90
10543;DHT22;5320;50.046;10.314;2022-11-03T04:33:08;5.80;99.90
10543;DHT22;5320;50.046;10.314;2022-11-03T04:35:36;5.80;99.90
10543;DHT22;5320;50.046;10.314;2022-11-03T04:38:28;5.80;99.90
10543;DHT22;5320;50.046;10.314;2022-11-03T04:40:57;5.70;99.90
10543;DHT22;5320;50.046;10.314;2022-11-03T04:43:33;5.70;99.90
10543;DHT22;5320;50.046;10.314;2022-11-03T04:46:00;5.70;99.90
10543;DHT22;5320;50.046;10.314;2022-11-03T04:48:27;5.70;99.90
10543;DHT22;5320;50.046;10.314;2022-11-03T04:50:55;5.60;99.90
10543;DHT22;5320;50.046;10.314;2022-11-03T04:53:22;5.60;99.90
10543;DHT22;5320;50.046;10.314;2022-11-03T04:55:50;5.70;99.90
10543;DHT22;5320;50.046;10.314;2022-11-03T04:58:26;5.80;99.90
10543;DHT22;5320;50.046;10.314;2022-11-03T05:00:58;5.70;99.90
10543;DHT22;5320;50.046;10.314;2022-11-03T05:03:30;5.70;99.90
10543;DHT22;5320;50.046;10.314;2022-11-03T05:05:57;5.70;99.90
10543;DHT22;5320;50.046;10.314;2022-11-03T05:08:23;5.80;99.90
10543;DHT22;5320;50.046;10.314;2022-11-03T05:10:49;5.80;99.90
10543;DHT22;5320;50.046;10.314;2022-11-03T05:13:20;5.70;99.90
10543;DHT22;5320;50.046;10.314;2022-11-03T05:15:48;5.70;99.90
10543;DHT22;5320;50.046;10.314;2022-11-03T05:20:55;5.70;99.90
10543;DHT22;5320;50.046;10.314;2022-11-03T05:23:22;5.70;99.90
10543;DHT22;5320;50.046;10.314;2022-11-03T05:25:52;5.60;99.90
10543;DHT22;5320;50.046;10.314;2022-11-03T05:28:22;5.60;99.90
10543;DHT22;5320;50.046;10.314;2022-11-03T05:30:48;5.70;99.90
10543;DHT22;5320;50.046;10.314;2022-11-03T05:33:22;5.70;99.90
10543;DHT22;5320;50.046;10.314;2022-11-03T05:35:49;5.60;99.90
10543;DHT22;5320;50.046;10.314;2022-11-03T05:38:18;5.60;99.90
10543;DHT22;5320;50.046;10.314;2022-11-03T05:40:44;5.60;99.90
10543;DHT22;5320;50.046;10.314;2022-11-03T05:43:12;5.60;99.90
10543;DHT22;5320;50.046;10.314;2022-11-03T05:45:39;5.60;99.90
10543;DHT22;5320;50.046;10.314;2022-11-03T05:48:20;5.60;99.90
10543;DHT22;5320;50.046;10.314;2022-11-03T05:50:47;5.60;99.90
10543;DHT22;5320;50.046;10.314;2022-11-03T05:53:24;5.60;99.90
10543;DHT22;5320;50.046;10.314;2022-11-03T05:55:50;5.60;99.90
10543;DHT22;5320;50.046;10.314;2022-11-03T06:00:47;5.70;99.90
10543;DHT22;5320;50.046;10.314;2022-11-03T06:03:20;5.70;99.90
10543;DHT22;5320;50.046;10.314;2022-11-03T06:05:47;5.70;99.90
10543;DHT22;5320;50.046;10.314;2022-11-03T06:08:39;5.70;99.90
10543;DHT22;5320;50.046;10.314;2022-11-03T06:11:07;5.70;99.90
10543;DHT22;5320;50.046;10.314;2022-11-03T06:13:38;5.80;99.90
10543;DHT22;5320;50.046;10.314;2022-11-03T06:16:05;5.80;99.90
10543;DHT22;5320;50.046;10.314;2022-11-03T06:18:35;5.80;99.90
10543;DHT22;5320;50.046;10.314;2022-11-03T06:21:15;5.90;99.90
10543;DHT22;5320;50.046;10.314;2022-11-03T06:23:43;6.00;99.90
10543;DHT22;5320;50.046;10.314;2022-11-03T06:26:17;6.20;99.90
10543;DHT22;5320;50.046;10.314;2022-11-03T06:28:44;6.40;99.90
10543;DHT22;5320;50.046;10.314;2022-11-03T06:31:26;6.50;99.90
10543;DHT22;5320;50.046;10.314;2022-11-03T06:33:52;6.60;99.90
10543;DHT22;5320;50.046;10.314;2022-11-03T06:36:28;6.60;99.90
10543;DHT22;5320;50.046;10.314;2022-11-03T06:39:19;6.60;99.90
10543;DHT22;5320;50.046;10.314;2022-11-03T06:41:45;6.50;99.90
10543;DHT22;5320;50.046;10.314;2022-11-03T06:44:25;6.40;99.90
10543;DHT22;5320;50.046;10.314;2022-11-03T06:46:55;6.40;99.90
10543;DHT22;5320;50.046;10.314;2022-11-03T06:49:28;6.40;99.90
10543;DHT22;5320;50.046;10.314;2022-11-03T06:51:55;6.40;99.90
10543;DHT22;5320;50.046;10.314;2022-11-03T06:54:21;6.60;99.90
10543;DHT22;5320;50.046;10.314;2022-11-03T06:56:47;6.80;99.90
10543;DHT22;5320;50.046;10.314;2022-11-03T06:59:13;7.00;99.90
10543;DHT22;5320;50.046;10.314;2022-11-03T07:01:40;7.20;99.90
10543;DHT22;5320;50.046;10.314;2022-11-03T07:04:17;7.50;99.90
10543;DHT22;5320;50.046;10.314;2022-11-03T07:06:44;7.70;99.90
10543;DHT22;5320;50.046;10.314;2022-11-03T07:09:18;7.80;99.90
10543;DHT22;5320;50.046;10.314;2022-11-03T07:11:48;7.90;99.90
10543;DHT22;5320;50.046;10.314;2022-11-03T07:14:17;8.00;99.90
10543;DHT22;5320;50.046;10.314;2022-11-03T07:19:18;8.10;99.90
10543;DHT22;5320;50.046;10.314;2022-11-03T07:21:53;8.00;99.90
10543;DHT22;5320;50.046;10.314;2022-11-03T07:24:40;8.10;99.90
10543;DHT22;5320;50.046;10.314;2022-11-03T07:27:30;8.20;99.90
10543;DHT22;5320;50.046;10.314;2022-11-03T07:30:28;8.40;99.90
10543;DHT22;5320;50.046;10.314;2022-11-03T07:32:52;8.60;99.90
10543;DHT22;5320;50.046;10.314;2022-11-03T07:35:30;8.80;99.90
10543;DHT22;5320;50.046;10.314;2022-11-03T07:38:01;8.90;99.90
10543;DHT22;5320;50.046;10.314;2022-11-03T07:40:30;8.90;99.90
10543;DHT22;5320;50.046;10.314;2022-11-03T07:43:07;8.90;99.90
10543;DHT22;5320;50.046;10.314;2022-11-03T07:45:42;9.00;99.90
10543;DHT22;5320;50.046;10.314;2022-11-03T07:50:47;9.10;99.90
10543;DHT22;5320;50.046;10.314;2022-11-03T07:53:39;9.20;99.90
10543;DHT22;5320;50.046;10.314;2022-11-03T07:58:42;9.10;99.90
10543;DHT22;5320;50.046;10.314;2022-11-03T08:01:24;9.10;99.90
10543;DHT22;5320;50.046;10.314;2022-11-03T08:03:51;9.20;99.90
10543;DHT22;5320;50.046;10.314;2022-11-03T08:06:17;9.30;99.90
10543;DHT22;5320;50.046;10.314;2022-11-03T08:08:42;9.40;99.90
10543;DHT22;5320;50.046;10.314;2022-11-03T08:11:08;9.60;99.90
10543;DHT22;5320;50.046;10.314;2022-11-03T08:13:34;9.70;99.90
10543;DHT22;5320;50.046;10.314;2022-11-03T08:15:59;9.80;99.90
10543;DHT22;5320;50.046;10.314;2022-11-03T08:18:25;10.00;99.90
10543;DHT22;5320;50.046;10.314;2022-11-03T08:20:51;10.10;99.90
10543;DHT22;5320;50.046;10.314;2022-11-03T08:23:16;10.20;99.90
10543;DHT22;5320;50.046;10.314;2022-11-03T08:25:42;10.30;99.90
10543;DHT22;5320;50.046;10.314;2022-11-03T08:28:08;10.40;99.90
10543;DHT22;5320;50.046;10.314;2022-11-03T08:30:34;10.50;99.90
10543;DHT22;5320;50.046;10.314;2022-11-03T08:33:00;10.60;99.90
10543;DHT22;5320;50.046;10.314;2022-11-03T08:35:25;10.70;99.90
10543;DHT22;5320;50.046;10.314;2022-11-03T08:37:51;10.70;99.90
10543;DHT22;5320;50.046;10.314;2022-11-03T08:40:17;10.80;99.90
10543;DHT22;5320;50.046;10.314;2022-11-03T08:42:43;10.80;99.90
10543;DHT22;5320;50.046;10.314;2022-11-03T08:45:09;10.80;99.90
10543;DHT22;5320;50.046;10.314;2022-11-03T08:47:35;10.80;99.90
10543;DHT22;5320;50.046;10.314;2022-11-03T08:50:01;10.90;99.90
10543;DHT22;5320;50.046;10.314;2022-11-03T08:52:27;11.00;99.90
10543;DHT22;5320;50.046;10.314;2022-11-03T08:54:52;11.10;99.90
10543;DHT22;5320;50.046;10.314;2022-11-03T08:57:18;11.20;99.90
10543;DHT22;5320;50.046;10.314;2022-11-03T08:59:44;11.30;99.90
10543;DHT22;5320;50.046;10.314;2022-11-03T09:02:10;11.30;99.90
10543;DHT22;5320;50.046;10.314;2022-11-03T09:04:35;11.30;99.90
10543;DHT22;5320;50.046;10.314;2022-11-03T09:07:01;11.30;99.90
10543;DHT22;5320;50.046;10.314;2022-11-03T09:09:26;11.30;99.90
10543;DHT22;5320;50.046;10.314;2022-11-03T09:11:52;11.30;99.90
10543;DHT22;5320;50.046;10.314;2022-11-03T09:14:17;11.30;99.90
10543;DHT22;5320;50.046;10.314;2022-11-03T09:16:43;11.30;99.90
10543;DHT22;5320;50.046;10.314;2022-11-03T09:19:09;11.40;99.90
10543;DHT22;5320;50.046;10.314;2022-11-03T09:21:34;11.40;99.90
10543;DHT22;5320;50.046;10.314;2022-11-03T09:24:00;11.50;99.90
10543;DHT22;5320;50.046;10.314;2022-11-03T09:26:26;11.60;99.90
10543;DHT22;5320;50.046;10.314;2022-11-03T09:28:52;11.70;99.90
10543;DHT22;5320;50.046;10.314;2022-11-03T09:31:18;11.70;99.90
10543;DHT22;5320;50.046;10.314;2022-11-03T09:33:44;11.80;99.90
10543;DHT22;5320;50.046;10.314;2022-11-03T09:36:09;11.90;99.90
10543;DHT22;5320;50.046;10.314;2022-11-03T09:38:35;12.10;99.90
10543;DHT22;5320;50.046;10.314;2022-11-03T09:41:02;12.30;99.90
10543;DHT22;5320;50.046;10.314;2022-11-03T09:43:27;12.50;99.90
10543;DHT22;5320;50.046;10.314;2022-11-03T09:45:54;12.60;99.90
10543;DHT22;5320;50.046;10.314;2022-11-03T09:48:19;12.70;99.90
10543;DHT22;5320;50.046;10.314;2022-11-03T09:50:49;12.70;99.90
10543;DHT22;5320;50.046;10.314;2022-11-03T09:53:16;12.70;99.90
10543;DHT22;5320;50.046;10.314;2022-11-03T09:55:41;12.90;99.90
10543;DHT22;5320;50.046;10.314;2022-11-03T09:58:15;13.00;99.90
10543;DHT22;5320;50.046;10.314;2022-11-03T10:00:41;13.20;99.90
10543;DHT22;5320;50.046;10.314;2022-11-03T10:03:15;13.20;99.90
10543;DHT22;5320;50.046;10.314;2022-11-03T10:05:43;13.10;99.90
10543;DHT22;5320;50.046;10.314;2022-11-03T10:08:30;13.30;99.90
10543;DHT22;5320;50.046;10.314;2022-11-03T10:10:57;13.30;99.90
10543;DHT22;5320;50.046;10.314;2022-11-03T10:13:38;13.50;99.90
10543;DHT22;5320;50.046;10.314;2022-11-03T10:16:07;13.70;99.90
10543;DHT22;5320;50.046;10.314;2022-11-03T10:18:34;13.90;99.90
10543;DHT22;5320;50.046;10.314;2022-11-03T10:21:13;14.00;99.90
10543;DHT22;5320;50.046;10.314;2022-11-03T10:23:39;14.50;99.90
10543;DHT22;5320;50.046;10.314;2022-11-03T10:26:10;14.90;99.90
10543;DHT22;5320;50.046;10.314;2022-11-03T10:28:36;15.30;99.90
10543;DHT22;5320;50.046;10.314;2022-11-03T10:31:17;15.30;99.90
10543;DHT22;5320;50.046;10.314;2022-11-03T10:33:54;15.20;99.90
10543;DHT22;5320;50.046;10.314;2022-11-03T10:38:48;15.00;99.90
10543;DHT22;5320;50.046;10.314;2022-11-03T10:41:15;14.80;99.90
10543;DHT22;5320;50.046;10.314;2022-11-03T10:43:43;14.80;99.90
10543;DHT22;5320;50.046;10.314;2022-11-03T10:46:18;14.80;99.90
10543;DHT22;5320;50.046;10.314;2022-11-03T10:48:48;15.00;99.90
10543;DHT22;5320;50.046;10.314;2022-11-03T10:51:25;15.10;99.90
10543;DHT22;5320;50.046;10.314;2022-11-03T10:53:50;15.30;99.90
10543;DHT22;5320;50.046;10.314;2022-11-03T10:56:16;15.30;99.90
10543;DHT22;5320;50.046;10.314;2022-11-03T10:58:42;15.10;99.90
10543;DHT22;5320;50.046;10.314;2022-11-03T11:01:09;15.10;99.90
10543;DHT22;5320;50.046;10.314;2022-11-03T11:03:40;15.00;99.90
10543;DHT22;5320;50.046;10.314;2022-11-03T11:06:17;14.70;99.90
10543;DHT22;5320;50.046;10.314;2022-11-03T11:08:43;14.50;99.90
10543;DHT22;5320;50.046;10.314;2022-11-03T11:11:16;14.40;99.90
10543;DHT22;5320;50.046;10.314;2022-11-03T11:13:42;14.50;99.90
10543;DHT22;5320;50.046;10.314;2022-11-03T11:19:15;14.70;99.90
10543;DHT22;5320;50.046;10.314;2022-11-03T11:24:10;14.70;99.90
10543;DHT22;5320;50.046;10.314;2022-11-03T11:26:36;14.90;99.90
10543;DHT22;5320;50.046;10.314;2022-11-03T11:31:44;14.90;99.90
10543;DHT22;5320;50.046;10.314;2022-11-03T11:42:09;14.70;99.90
10543;DHT22;5320;50.046;10.314;2022-11-03T11:50:22;15.00;99.90
10543;DHT22;5320;50.046;10.314;2022-11-03T11:53:03;15.20;99.90
10543;DHT22;5320;50.046;10.314;2022-11-03T12:01:21;14.80;99.90
10543;DHT22;5320;50.046;10.314;2022-11-03T12:03:48;14.80;99.90
10543;DHT22;5320;50.046;10.314;2022-11-03T12:06:15;14.90;99.90
10543;DHT22;5320;50.046;10.314;2022-11-03T12:08:41;14.90;99.90
10543;DHT22;5320;50.046;10.314;2022-11-03T12:11:10;15.10;99.90
10543;DHT22;5320;50.046;10.314;2022-11-03T12:13:50;15.20;99.90
10543;DHT22;5320;50.046;10.314;2022-11-03T12:16:49;15.30;99.90
10543;DHT22;5320;50.046;10.314;2022-11-03T12:19:37;15.20;94.90
10543;DHT22;5320;50.046;10.314;2022-11-03T12:22:11;15.20;99.50
10543;DHT22;5320;50.046;10.314;2022-11-03T12:25:04;15.10;99.90
10543;DHT22;5320;50.046;10.314;2022-11-03T12:30:18;14.90;99.90
10543;DHT22;5320;50.046;10.314;2022-11-03T12:32:45;15.10;99.90
10543;DHT22;5320;50.046;10.314;2022-11-03T12:35:11;15.10;99.90
10543;DHT22;5320;50.046;10.314;2022-11-03T12:37:38;15.00;99.90
10543;DHT22;5320;50.046;10.314;2022-11-03T12:40:05;15.00;99.90
10543;DHT22;5320;50.046;10.314;2022-11-03T12:42:31;15.00;99.90
10543;DHT22;5320;50.046;10.314;2022-11-03T12:44:56;15.00;99.90
10543;DHT22;5320;50.046;10.314;2022-11-03T12:47:22;15.00;99.90
10543;DHT22;5320;50.046;10.314;2022-11-03T12:49:48;15.00;99.90
10543;DHT22;5320;50.046;10.314;2022-11-03T12:52:14;15.00;99.90
10543;DHT22;5320;50.046;10.314;2022-11-03T12:54:39;14.90;99.90
10543;DHT22;5320;50.046;10.314;2022-11-03T12:57:06;14.80;99.90
10543;DHT22;5320;50.046;10.314;2022-11-03T12:59:32;14.80;99.90
10543;DHT22;5320;50.046;10.314;2022-11-03T13:01:57;14.70;99.90
10543;DHT22;5320;50.046;10.314;2022-11-03T13:04:23;14.70;99.90
10543;DHT22;5320;50.046;10.314;2022-11-03T13:06:48;14.60;99.90
10543;DHT22;5320;50.046;10.314;2022-11-03T13:09:14;14.60;99.90
10543;DHT22;5320;50.046;10.314;2022-11-03T13:11:40;14.50;99.90
10543;DHT22;5320;50.046;10.314;2022-11-03T13:14:24;14.50;99.90
10543;DHT22;5320;50.046;10.314;2022-11-03T13:16:51;14.50;99.90
10543;DHT22;5320;50.046;10.314;2022-11-03T13:19:16;14.60;99.90
10543;DHT22;5320;50.046;10.314;2022-11-03T13:21:42;14.60;99.90
10543;DHT22;5320;50.046;10.314;2022-11-03T13:24:07;14.60;99.90
10543;DHT22;5320;50.046;10.314;2022-11-03T13:26:33;14.60;99.90
10543;DHT22;5320;50.046;10.314;2022-11-03T13:28:58;14.60;99.90
10543;DHT22;5320;50.046;10.314;2022-11-03T13:31:24;14.50;99.90
10543;DHT22;5320;50.046;10.314;2022-11-03T13:33:50;14.50;99.90
10543;DHT22;5320;50.046;10.314;2022-11-03T13:36:16;14.40;99.90
10543;DHT22;5320;50.046;10.314;2022-11-03T13:38:42;14.30;99.90
10543;DHT22;5320;50.046;10.314;2022-11-03T13:41:07;14.30;99.90
10543;DHT22;5320;50.046;10.314;2022-11-03T13:43:33;14.30;99.90
10543;DHT22;5320;50.046;10.314;2022-11-03T13:45:58;14.30;99.90
10543;DHT22;5320;50.046;10.314;2022-11-03T13:48:27;14.30;99.90
10543;DHT22;5320;50.046;10.314;2022-11-03T13:50:53;14.40;99.90
10543;DHT22;5320;50.046;10.314;2022-11-03T13:53:20;14.40;99.90
10543;DHT22;5320;50.046;10.314;2022-11-03T13:55:45;14.40;99.90
10543;DHT22;5320;50.046;10.314;2022-11-03T13:58:11;14.30;99.90
10543;DHT22;5320;50.046;10.314;2022-11-03T14:00:37;14.30;99.90
10543;DHT22;5320;50.046;10.314;2022-11-03T14:03:02;14.30;99.90
10543;DHT22;5320;50.046;10.314;2022-11-03T14:05:28;14.40;99.90
10543;DHT22;5320;50.046;10.314;2022-11-03T14:07:53;14.30;99.90
10543;DHT22;5320;50.046;10.314;2022-11-03T14:10:19;14.30;99.90
10543;DHT22;5320;50.046;10.314;2022-11-03T14:12:45;14.30;99.90
10543;DHT22;5320;50.046;10.314;2022-11-03T14:15:11;14.30;99.90
10543;DHT22;5320;50.046;10.314;2022-11-03T14:17:37;14.30;99.90
10543;DHT22;5320;50.046;10.314;2022-11-03T14:20:04;14.30;99.90
10543;DHT22;5320;50.046;10.314;2022-11-03T14:22:30;14.20;99.90
10543;DHT22;5320;50.046;10.314;2022-11-03T14:24:56;14.20;99.90
10543;DHT22;5320;50.046;10.314;2022-11-03T14:27:22;14.10;99.90
10543;DHT22;5320;50.046;10.314;2022-11-03T14:29:48;14.10;99.90
10543;DHT22;5320;50.046;10.314;2022-11-03T14:32:14;14.10;99.90
10543;DHT22;5320;50.046;10.314;2022-11-03T14:34:41;14.00;99.90
10543;DHT22;5320;50.046;10.314;2022-11-03T14:37:08;14.00;99.90
10543;DHT22;5320;50.046;10.314;2022-11-03T14:39:34;14.00;99.90
10543;DHT22;5320;50.046;10.314;2022-11-03T14:42:02;14.00;99.90
10543;DHT22;5320;50.046;10.314;2022-11-03T14:44:28;13.90;99.90
10543;DHT22;5320;50.046;10.314;2022-11-03T14:46:54;13.90;99.90
10543;DHT22;5320;50.046;10.314;2022-11-03T14:49:19;13.90;99.90
10543;DHT22;5320;50.046;10.314;2022-11-03T14:51:45;13.90;99.90
10543;DHT22;5320;50.046;10.314;2022-11-03T14:54:11;13.80;99.90
10543;DHT22;5320;50.046;10.314;2022-11-03T14:56:36;13.90;99.90
10543;DHT22;5320;50.046;10.314;2022-11-03T14:59:02;13.80;99.90
10543;DHT22;5320;50.046;10.314;2022-11-03T15:01:27;13.80;99.90
10543;DHT22;5320;50.046;10.314;2022-11-03T15:03:53;13.80;99.90
10543;DHT22;5320;50.046;10.314;2022-11-03T15:06:18;13.80;99.90
10543;DHT22;5320;50.046;10.314;2022-11-03T15:08:44;13.80;99.90
10543;DHT22;5320;50.046;10.314;2022-11-03T15:11:10;13.80;99.90
10543;DHT22;5320;50.046;10.314;2022-11-03T15:13:36;13.70;99.90
10543;DHT22;5320;50.046;10.314;2022-11-03T15:16:03;13.70;99.90
10543;DHT22;5320;50.046;10.314;2022-11-03T15:18:29;13.60;99.90
10543;DHT22;5320;50.046;10.314;2022-11-03T15:20:55;13.60;99.90
10543;DHT22;5320;50.046;10.314;2022-11-03T15:23:21;13.60;99.90
10543;DHT22;5320;50.046;10.314;2022-11-03T15:25:46;13.50;99.90
10543;DHT22;5320;50.046;10.314;2022-11-03T15:28:13;13.50;99.90
10543;DHT22;5320;50.046;10.314;2022-11-03T15:30:39;13.50;99.90
10543;DHT22;5320;50.046;10.314;2022-11-03T15:33:05;13.50;99.90
10543;DHT22;5320;50.046;10.314;2022-11-03T15:35:31;13.50;99.90
10543;DHT22;5320;50.046;10.314;2022-11-03T15:37:56;13.50;99.90
10543;DHT22;5320;50.046;10.314;2022-11-03T15:40:25;13.40;99.90
10543;DHT22;5320;50.046;10.314;2022-11-03T15:42:51;13.40;99.90
10543;DHT22;5320;50.046;10.314;2022-11-03T15:45:17;13.40;99.90
10543;DHT22;5320;50.046;10.314;2022-11-03T15:47:43;13.40;99.90
10543;DHT22;5320;50.046;10.314;2022-11-03T15:50:10;13.40;99.90
10543;DHT22;5320;50.046;10.314;2022-11-03T15:52:35;13.40;99.90
10543;DHT22;5320;50.046;10.314;2022-11-03T15:55:01;13.40;99.90
10543;DHT22;5320;50.046;10.314;2022-11-03T15:57:27;13.30;99.90
10543;DHT22;5320;50.046;10.314;2022-11-03T15:59:53;13.30;99.90
10543;DHT22;5320;50.046;10.314;2022-11-03T16:02:18;13.30;99.90
10543;DHT22;5320;50.046;10.314;2022-11-03T16:04:44;13.20;99.90
10543;DHT22;5320;50.046;10.314;2022-11-03T16:07:09;13.10;99.90
10543;DHT22;5320;50.046;10.314;2022-11-03T16:09:35;13.10;99.90
10543;DHT22;5320;50.046;10.314;2022-11-03T16:12:01;13.20;99.90
10543;DHT22;5320;50.046;10.314;2022-11-03T16:14:26;13.10;99.90
10543;DHT22;5320;50.046;10.314;2022-11-03T16:16:52;13.00;99.90
10543;DHT22;5320;50.046;10.314;2022-11-03T16:19:17;12.90;99.90
10543;DHT22;5320;50.046;10.314;2022-11-03T16:21:43;12.90;99.90
10543;DHT22;5320;50.046;10.314;2022-11-03T16:24:08;12.90;99.90
10543;DHT22;5320;50.046;10.314;2022-11-03T16:26:34;12.90;99.90
10543;DHT22;5320;50.046;10.314;2022-11-03T16:29:00;12.90;99.90
10543;DHT22;5320;50.046;10.314;2022-11-03T16:31:25;12.90;99.90
10543;DHT22;5320;50.046;10.314;2022-11-03T16:33:51;12.90;99.90
10543;DHT22;5320;50.046;10.314;2022-11-03T16:36:17;12.80;99.90
10543;DHT22;5320;50.046;10.314;2022-11-03T16:38:44;12.80;99.90
10543;DHT22;5320;50.046;10.314;2022-11-03T16:41:09;12.80;99.90
10543;DHT22;5320;50.046;10.314;2022-11-03T16:43:35;12.80;99.90
10543;DHT22;5320;50.046;10.314;2022-11-03T16:46:00;12.70;99.90
10543;DHT22;5320;50.046;10.314;2022-11-03T16:48:26;12.70;99.90